Terminal Aerodrome Forecast
Issued by NWS

Home | Current Version | Previous Version | Text Only | Print | Product List | Glossary On
Versions: 1 2 3 4 5 6 7 8 9 10 11 12 13 14 15 16 17 18 19 20 21 22 23
000
FTUS44 KHGX 271124
TAFCXO
TAF
KCXO 271124Z 2712/2812 VRB02KT P6SM SCT250
      TEMPO 2712/2713 2SM BR SCT004
     FM271600 04006KT P6SM VCSH SCT025 OVC250
     FM272000 06007KT P6SM VCTS SCT040CB BKN120
      TEMPO 2721/2724 TSRA
     FM280200 VRB04KT P6SM FEW030 BKN120=

USA.gov is the U.S. government's official web portal to all federal, state and local government web resources and services.